sensor_id;sensor_type;location;lat;lon;timestamp;pressure;altitude;pressure_sealevel;temperature;humidity
36234;BME280;43467;50.890;5.982;2024-01-10T00:00:05;101408.44;;;0.15;46.89
36234;BME280;43467;50.890;5.982;2024-01-10T00:02:31;101408.34;;;0.09;46.63
36234;BME280;43467;50.890;5.982;2024-01-10T00:04:56;101403.78;;;-0.04;46.87
36234;BME280;43467;50.890;5.982;2024-01-10T00:07:21;101409.06;;;0.00;46.89
36234;BME280;43467;50.890;5.982;2024-01-10T00:09:47;101409.16;;;0.04;46.58
36234;BME280;43467;50.890;5.982;2024-01-10T00:12:12;101397.03;;;0.07;46.64
36234;BME280;43467;50.890;5.982;2024-01-10T00:14:38;101403.13;;;0.09;46.69
36234;BME280;43467;50.890;5.982;2024-01-10T00:17:03;101400.38;;;-0.02;46.79
36234;BME280;43467;50.890;5.982;2024-01-10T00:19:29;101396.91;;;-0.02;47.18
36234;BME280;43467;50.890;5.982;2024-01-10T00:21:54;101401.34;;;0.05;46.70
36234;BME280;43467;50.890;5.982;2024-01-10T00:24:20;101400.41;;;0.00;47.03
36234;BME280;43467;50.890;5.982;2024-01-10T00:26:45;101399.50;;;-0.02;46.75
36234;BME280;43467;50.890;5.982;2024-01-10T00:29:11;101388.97;;;-0.08;46.85
36234;BME280;43467;50.890;5.982;2024-01-10T00:31:37;101391.66;;;-0.05;46.77
36234;BME280;43467;50.890;5.982;2024-01-10T00:34:02;101388.97;;;-0.08;46.92
36234;BME280;43467;50.890;5.982;2024-01-10T00:36:27;101390.78;;;-0.04;47.19
36234;BME280;43467;50.890;5.982;2024-01-10T00:38:53;101388.13;;;-0.09;47.22
36234;BME280;43467;50.890;5.982;2024-01-10T00:41:18;101377.72;;;-0.07;47.25
36234;BME280;43467;50.890;5.982;2024-01-10T00:43:43;101382.84;;;-0.13;47.31
36234;BME280;43467;50.890;5.982;2024-01-10T00:46:10;101382.88;;;-0.10;46.99
36234;BME280;43467;50.890;5.982;2024-01-10T00:48:35;101392.38;;;-0.14;47.19
36234;BME280;43467;50.890;5.982;2024-01-10T00:51:00;101384.56;;;-0.14;47.53
36234;BME280;43467;50.890;5.982;2024-01-10T00:53:26;101380.13;;;-0.19;47.36
36234;BME280;43467;50.890;5.982;2024-01-10T00:55:51;101393.03;;;-0.27;47.42
36234;BME280;43467;50.890;5.982;2024-01-10T00:58:18;101387.78;;;-0.30;47.78
36234;BME280;43467;50.890;5.982;2024-01-10T01:00:44;101390.94;;;-0.48;47.67
36234;BME280;43467;50.890;5.982;2024-01-10T01:03:10;101390.03;;;-0.48;47.89
36234;BME280;43467;50.890;5.982;2024-01-10T01:05:35;101396.13;;;-0.48;48.20
36234;BME280;43467;50.890;5.982;2024-01-10T01:08:00;101386.69;;;-0.42;48.20
36234;BME280;43467;50.890;5.982;2024-01-10T01:10:27;101389.28;;;-0.42;48.17
36234;BME280;43467;50.890;5.982;2024-01-10T01:12:52;101388.50;;;-0.38;48.08
36234;BME280;43467;50.890;5.982;2024-01-10T01:15:18;101378.84;;;-0.44;48.44
36234;BME280;43467;50.890;5.982;2024-01-10T01:17:43;101385.88;;;-0.38;48.41
36234;BME280;43467;50.890;5.982;2024-01-10T01:20:09;101378.25;;;-0.29;48.27
36234;BME280;43467;50.890;5.982;2024-01-10T01:22:34;101381.81;;;-0.23;48.17
36234;BME280;43467;50.890;5.982;2024-01-10T01:25:00;101385.38;;;-0.16;48.04
36234;BME280;43467;50.890;5.982;2024-01-10T01:27:25;101378.31;;;-0.25;47.92
36234;BME280;43467;50.890;5.982;2024-01-10T01:29:51;101377.53;;;-0.21;47.94
36234;BME280;43467;50.890;5.982;2024-01-10T01:32:16;101380.09;;;-0.22;48.32
36234;BME280;43467;50.890;5.982;2024-01-10T01:34:41;101384.44;;;-0.21;48.02
36234;BME280;43467;50.890;5.982;2024-01-10T01:37:07;101370.63;;;-0.16;48.03
36234;BME280;43467;50.890;5.982;2024-01-10T01:39:32;101372.44;;;-0.13;47.90
36234;BME280;43467;50.890;5.982;2024-01-10T01:41:58;101375.88;;;-0.14;47.75
36234;BME280;43467;50.890;5.982;2024-01-10T01:44:23;101375.91;;;-0.13;48.07
36234;BME280;43467;50.890;5.982;2024-01-10T01:46:49;101374.03;;;-0.20;47.91
36234;BME280;43467;50.890;5.982;2024-01-10T01:49:14;101368.84;;;-0.20;48.03
36234;BME280;43467;50.890;5.982;2024-01-10T01:51:40;101375.75;;;-0.20;48.19
36234;BME280;43467;50.890;5.982;2024-01-10T01:54:07;101371.50;;;-0.15;48.31
36234;BME280;43467;50.890;5.982;2024-01-10T01:56:36;101366.31;;;-0.15;48.21
36234;BME280;43467;50.890;5.982;2024-01-10T01:59:06;101366.31;;;-0.17;48.26
36234;BME280;43467;50.890;5.982;2024-01-10T02:01:32;101369.81;;;-0.13;47.90
36234;BME280;43467;50.890;5.982;2024-01-10T02:03:59;101374.97;;;-0.18;48.09
36234;BME280;43467;50.890;5.982;2024-01-10T02:06:25;101373.31;;;-0.13;48.42
36234;BME280;43467;50.890;5.982;2024-01-10T02:08:51;101365.63;;;-0.04;48.16
36234;BME280;43467;50.890;5.982;2024-01-10T02:11:17;101360.34;;;-0.10;47.77
36234;BME280;43467;50.890;5.982;2024-01-10T02:13:44;101372.34;;;-0.16;48.28
36234;BME280;43467;50.890;5.982;2024-01-10T02:16:10;101351.50;;;-0.19;48.27
36234;BME280;43467;50.890;5.982;2024-01-10T02:18:35;101365.44;;;-0.17;48.58
36234;BME280;43467;50.890;5.982;2024-01-10T02:21:01;101363.59;;;-0.23;48.35
36234;BME280;43467;50.890;5.982;2024-01-10T02:23:26;101363.63;;;-0.20;48.57
36234;BME280;43467;50.890;5.982;2024-01-10T02:25:52;101363.63;;;-0.21;48.62
36234;BME280;43467;50.890;5.982;2024-01-10T02:28:18;101365.34;;;-0.20;48.31
36234;BME280;43467;50.890;5.982;2024-01-10T02:30:43;101363.50;;;-0.27;48.09
36234;BME280;43467;50.890;5.982;2024-01-10T02:33:09;101361.88;;;-0.22;48.39
36234;BME280;43467;50.890;5.982;2024-01-10T02:35:34;101356.66;;;-0.22;48.49
36234;BME280;43467;50.890;5.982;2024-01-10T02:38:00;101355.59;;;-0.35;48.47
36234;BME280;43467;50.890;5.982;2024-01-10T02:40:25;101359.91;;;-0.35;48.54
36234;BME280;43467;50.890;5.982;2024-01-10T02:42:51;101356.63;;;-0.25;48.46
36234;BME280;43467;50.890;5.982;2024-01-10T02:45:19;101353.03;;;-0.32;48.70
36234;BME280;43467;50.890;5.982;2024-01-10T02:47:45;101344.41;;;-0.28;48.69
36234;BME280;43467;50.890;5.982;2024-01-10T02:50:10;101340.63;;;-0.48;49.44
36234;BME280;43467;50.890;5.982;2024-01-10T02:52:36;101339.25;;;-0.26;49.45
36234;BME280;43467;50.890;5.982;2024-01-10T02:55:01;101342.81;;;-0.21;49.34
36234;BME280;43467;50.890;5.982;2024-01-10T02:57:27;101338.53;;;-0.18;48.99
36234;BME280;43467;50.890;5.982;2024-01-10T02:59:53;101340.28;;;-0.15;48.65
36234;BME280;43467;50.890;5.982;2024-01-10T03:02:18;101336.81;;;-0.17;48.71
36234;BME280;43467;50.890;5.982;2024-01-10T03:04:43;101335.00;;;-0.21;48.39
36234;BME280;43467;50.890;5.982;2024-01-10T03:07:09;101328.88;;;-0.23;48.83
36234;BME280;43467;50.890;5.982;2024-01-10T03:09:35;101329.69;;;-0.27;48.66
36234;BME280;43467;50.890;5.982;2024-01-10T03:12:00;101323.66;;;-0.25;49.02
36234;BME280;43467;50.890;5.982;2024-01-10T03:14:26;101325.28;;;-0.31;48.88
36234;BME280;43467;50.890;5.982;2024-01-10T03:16:51;101320.97;;;-0.31;48.79
36234;BME280;43467;50.890;5.982;2024-01-10T03:19:18;101323.53;;;-0.34;48.92
36234;BME280;43467;50.890;5.982;2024-01-10T03:21:43;101313.06;;;-0.35;49.36
36234;BME280;43467;50.890;5.982;2024-01-10T03:24:09;101322.53;;;-0.40;49.22
36234;BME280;43467;50.890;5.982;2024-01-10T03:26:35;101323.28;;;-0.48;49.53
36234;BME280;43467;50.890;5.982;2024-01-10T03:29:00;101320.59;;;-0.54;49.51
36234;BME280;43467;50.890;5.982;2024-01-10T03:31:30;101311.88;;;-0.57;49.96
36234;BME280;43467;50.890;5.982;2024-01-10T03:33:56;101312.69;;;-0.60;50.12
36234;BME280;43467;50.890;5.982;2024-01-10T03:36:23;101307.53;;;-0.57;49.88
36234;BME280;43467;50.890;5.982;2024-01-10T03:38:50;101309.97;;;-0.67;49.73
36234;BME280;43467;50.890;5.982;2024-01-10T03:41:16;101302.91;;;-0.74;50.26
36234;BME280;43467;50.890;5.982;2024-01-10T03:43:42;101302.13;;;-0.69;50.16
36234;BME280;43467;50.890;5.982;2024-01-10T03:46:09;101310.00;;;-0.66;50.18
36234;BME280;43467;50.890;5.982;2024-01-10T03:48:35;101309.13;;;-0.65;50.02
36234;BME280;43467;50.890;5.982;2024-01-10T03:51:00;101310.88;;;-0.64;50.34
36234;BME280;43467;50.890;5.982;2024-01-10T03:53:26;101312.59;;;-0.64;50.37
36234;BME280;43467;50.890;5.982;2024-01-10T03:55:52;101312.69;;;-0.61;50.04
36234;BME280;43467;50.890;5.982;2024-01-10T03:58:17;101305.59;;;-0.68;50.10
36234;BME280;43467;50.890;5.982;2024-01-10T04:00:42;101303.03;;;-0.65;50.23
36234;BME280;43467;50.890;5.982;2024-01-10T04:03:08;101298.72;;;-0.66;50.49
36234;BME280;43467;50.890;5.982;2024-01-10T04:05:33;101299.59;;;-0.66;50.27
36234;BME280;43467;50.890;5.982;2024-01-10T04:07:58;101303.91;;;-0.65;50.18
36234;BME280;43467;50.890;5.982;2024-01-10T04:10:24;101303.00;;;-0.70;50.43
36234;BME280;43467;50.890;5.982;2024-01-10T04:12:49;101302.00;;;-0.76;50.43
36234;BME280;43467;50.890;5.982;2024-01-10T04:15:15;101299.31;;;-0.81;50.64
36234;BME280;43467;50.890;5.982;2024-01-10T04:17:41;101295.91;;;-0.77;50.46
36234;BME280;43467;50.890;5.982;2024-01-10T04:20:07;101303.78;;;-0.74;50.14
36234;BME280;43467;50.890;5.982;2024-01-10T04:22:32;101309.03;;;-0.71;50.55
36234;BME280;43467;50.890;5.982;2024-01-10T04:24:59;101301.13;;;-0.77;50.19
36234;BME280;43467;50.890;5.982;2024-01-10T04:27:26;101297.69;;;-0.76;50.36
36234;BME280;43467;50.890;5.982;2024-01-10T04:29:51;101293.31;;;-0.77;50.74
36234;BME280;43467;50.890;5.982;2024-01-10T04:32:16;101296.00;;;-0.72;50.64
36234;BME280;43467;50.890;5.982;2024-01-10T04:34:42;101300.41;;;-0.70;50.49
36234;BME280;43467;50.890;5.982;2024-01-10T04:37:08;101288.22;;;-0.71;50.56
36234;BME280;43467;50.890;5.982;2024-01-10T04:39:36;101291.63;;;-0.75;50.45
36234;BME280;43467;50.890;5.982;2024-01-10T04:42:03;101299.53;;;-0.69;50.71
36234;BME280;43467;50.890;5.982;2024-01-10T04:44:29;101292.63;;;-0.65;50.26
36234;BME280;43467;50.890;5.982;2024-01-10T04:46:55;101295.16;;;-0.71;50.45
36234;BME280;43467;50.890;5.982;2024-01-10T04:49:20;101289.91;;;-0.74;50.16
36234;BME280;43467;50.890;5.982;2024-01-10T04:51:46;101289.63;;;-0.89;50.79
36234;BME280;43467;50.890;5.982;2024-01-10T04:54:11;101294.00;;;-0.88;50.65
36234;BME280;43467;50.890;5.982;2024-01-10T04:56:37;101294.88;;;-0.88;50.72
36234;BME280;43467;50.890;5.982;2024-01-10T04:59:03;101288.84;;;-0.85;51.13
36234;BME280;43467;50.890;5.982;2024-01-10T05:01:29;101297.59;;;-0.82;51.01
36234;BME280;43467;50.890;5.982;2024-01-10T05:03:54;101294.94;;;-0.83;51.21
36234;BME280;43467;50.890;5.982;2024-01-10T05:06:20;101299.22;;;-0.87;50.95
36234;BME280;43467;50.890;5.982;2024-01-10T05:08:45;101299.09;;;-0.93;51.32
36234;BME280;43467;50.890;5.982;2024-01-10T05:11:11;101299.19;;;-0.88;51.17
36234;BME280;43467;50.890;5.982;2024-01-10T05:13:36;101302.66;;;-0.88;51.50
36234;BME280;43467;50.890;5.982;2024-01-10T05:16:02;101297.59;;;-0.82;50.99
36234;BME280;43467;50.890;5.982;2024-01-10T05:18:27;101299.88;;;-0.99;51.02
36234;BME280;43467;50.890;5.982;2024-01-10T05:20:53;101299.22;;;-0.85;51.00
36234;BME280;43467;50.890;5.982;2024-01-10T05:23:18;101298.44;;;-0.81;51.10
36234;BME280;43467;50.890;5.982;2024-01-10T05:25:44;101291.56;;;-0.79;50.65
36234;BME280;43467;50.890;5.982;2024-01-10T05:28:09;101295.88;;;-0.80;50.98
36234;BME280;43467;50.890;5.982;2024-01-10T05:30:34;101292.47;;;-0.76;51.04
36234;BME280;43467;50.890;5.982;2024-01-10T05:33:00;101287.19;;;-0.82;50.81
36234;BME280;43467;50.890;5.982;2024-01-10T05:35:25;101286.31;;;-0.81;50.92
36234;BME280;43467;50.890;5.982;2024-01-10T05:37:51;101290.78;;;-0.74;50.86
36234;BME280;43467;50.890;5.982;2024-01-10T05:40:17;101283.72;;;-0.82;51.06
36234;BME280;43467;50.890;5.982;2024-01-10T05:42:43;101287.09;;;-0.85;51.26
36234;BME280;43467;50.890;5.982;2024-01-10T05:45:10;101301.13;;;-0.77;51.48
36234;BME280;43467;50.890;5.982;2024-01-10T05:47:35;101289.91;;;-0.74;51.04
36234;BME280;43467;50.890;5.982;2024-01-10T05:50:01;101282.03;;;-0.79;51.15
36234;BME280;43467;50.890;5.982;2024-01-10T05:52:27;101284.63;;;-0.79;51.25
36234;BME280;43467;50.890;5.982;2024-01-10T05:54:52;101289.84;;;-0.79;50.63
36234;BME280;43467;50.890;5.982;2024-01-10T05:57:18;101286.34;;;-0.79;50.92
36234;BME280;43467;50.890;5.982;2024-01-10T05:59:44;101285.47;;;-0.80;50.42
36234;BME280;43467;50.890;5.982;2024-01-10T06:02:09;101281.91;;;-0.86;50.58
36234;BME280;43467;50.890;5.982;2024-01-10T06:04:35;101287.19;;;-0.82;50.45
36234;BME280;43467;50.890;5.982;2024-01-10T06:07:00;101282.69;;;-0.90;50.86
36234;BME280;43467;50.890;5.982;2024-01-10T06:09:26;101281.81;;;-0.91;50.67
36234;BME280;43467;50.890;5.982;2024-01-10T06:11:51;101275.63;;;-0.98;50.76
36234;BME280;43467;50.890;5.982;2024-01-10T06:14:17;101272.25;;;-0.92;50.95
36234;BME280;43467;50.890;5.982;2024-01-10T06:16:43;101274.03;;;-0.89;50.64
36234;BME280;43467;50.890;5.982;2024-01-10T06:19:10;101273.94;;;-0.96;50.53
36234;BME280;43467;50.890;5.982;2024-01-10T06:21:36;101278.22;;;-0.99;50.72
36234;BME280;43467;50.890;5.982;2024-01-10T06:24:02;101277.41;;;-0.95;50.79
36234;BME280;43467;50.890;5.982;2024-01-10T06:26:27;101270.50;;;-0.95;50.95
36234;BME280;43467;50.890;5.982;2024-01-10T06:28:53;101275.78;;;-0.90;50.83
36234;BME280;43467;50.890;5.982;2024-01-10T06:31:18;101276.63;;;-0.91;50.69
36234;BME280;43467;50.890;5.982;2024-01-10T06:33:45;101279.00;;;-1.02;50.93
36234;BME280;43467;50.890;5.982;2024-01-10T06:36:10;101279.97;;;-0.98;50.57
36234;BME280;43467;50.890;5.982;2024-01-10T06:38:35;101276.47;;;-1.00;50.81
36234;BME280;43467;50.890;5.982;2024-01-10T06:41:01;101274.78;;;-0.97;50.61
36234;BME280;43467;50.890;5.982;2024-01-10T06:43:32;101268.63;;;-1.03;50.59
36234;BME280;43467;50.890;5.982;2024-01-10T06:45:57;101268.47;;;-1.11;50.63
36234;BME280;43467;50.890;5.982;2024-01-10T06:48:22;101267.47;;;-1.19;51.08
36234;BME280;43467;50.890;5.982;2024-01-10T06:50:48;101274.34;;;-1.22;50.96
36234;BME280;43467;50.890;5.982;2024-01-10T06:53:13;101282.94;;;-1.25;51.09
36234;BME280;43467;50.890;5.982;2024-01-10T06:55:39;101279.53;;;-1.22;51.54
36234;BME280;43467;50.890;5.982;2024-01-10T06:58:04;101276.94;;;-1.22;51.27
36234;BME280;43467;50.890;5.982;2024-01-10T07:00:29;101273.47;;;-1.21;51.26
36234;BME280;43467;50.890;5.982;2024-01-10T07:02:56;101270.94;;;-1.18;51.12
36234;BME280;43467;50.890;5.982;2024-01-10T07:05:22;101273.63;;;-1.12;51.40
36234;BME280;43467;50.890;5.982;2024-01-10T07:07:47;101274.56;;;-1.10;50.90
36234;BME280;43467;50.890;5.982;2024-01-10T07:10:14;101287.66;;;-1.04;50.88
36234;BME280;43467;50.890;5.982;2024-01-10T07:12:40;101281.59;;;-1.03;50.98
36234;BME280;43467;50.890;5.982;2024-01-10T07:15:06;101281.56;;;-1.06;51.27
36234;BME280;43467;50.890;5.982;2024-01-10T07:17:32;101288.56;;;-1.01;50.80
36234;BME280;43467;50.890;5.982;2024-01-10T07:19:58;101291.97;;;-1.06;50.90
36234;BME280;43467;50.890;5.982;2024-01-10T07:22:23;101296.47;;;-0.96;50.85
36234;BME280;43467;50.890;5.982;2024-01-10T07:24:49;101279.97;;;-0.98;50.75
36234;BME280;43467;50.890;5.982;2024-01-10T07:27:14;101299.28;;;-0.84;50.21
36234;BME280;43467;50.890;5.982;2024-01-10T07:29:40;101302.78;;;-0.82;50.20
36234;BME280;43467;50.890;5.982;2024-01-10T07:32:07;101304.38;;;-0.90;50.40
36234;BME280;43467;50.890;5.982;2024-01-10T07:34:39;101299.09;;;-0.93;50.16
36234;BME280;43467;50.890;5.982;2024-01-10T07:37:04;101300.03;;;-0.91;50.60
36234;BME280;43467;50.890;5.982;2024-01-10T07:39:30;101305.34;;;-0.83;50.17
36234;BME280;43467;50.890;5.982;2024-01-10T07:41:55;101313.09;;;-0.85;50.39
36234;BME280;43467;50.890;5.982;2024-01-10T07:44:21;101312.31;;;-0.81;50.40
36234;BME280;43467;50.890;5.982;2024-01-10T07:46:47;101312.31;;;-0.81;50.29
36234;BME280;43467;50.890;5.982;2024-01-10T07:49:12;101300.09;;;-0.85;50.24
36234;BME280;43467;50.890;5.982;2024-01-10T07:51:37;101304.63;;;-0.73;50.65
36234;BME280;43467;50.890;5.982;2024-01-10T07:54:03;101309.00;;;-0.74;50.15
36234;BME280;43467;50.890;5.982;2024-01-10T07:56:28;101306.22;;;-0.83;50.67
36234;BME280;43467;50.890;5.982;2024-01-10T07:58:55;101309.72;;;-0.82;50.64
36234;BME280;43467;50.890;5.982;2024-01-10T08:01:20;101311.38;;;-0.84;50.91
36234;BME280;43467;50.890;5.982;2024-01-10T08:03:46;101312.34;;;-0.79;50.88
36234;BME280;43467;50.890;5.982;2024-01-10T08:06:12;101311.50;;;-0.77;50.51
36234;BME280;43467;50.890;5.982;2024-01-10T08:08:39;101313.09;;;-0.85;50.37
36234;BME280;43467;50.890;5.982;2024-01-10T08:11:04;101313.19;;;-0.80;50.86
36234;BME280;43467;50.890;5.982;2024-01-10T08:13:30;101320.25;;;-0.75;50.89
36234;BME280;43467;50.890;5.982;2024-01-10T08:15:56;101316.72;;;-0.77;51.26
36234;BME280;43467;50.890;5.982;2024-01-10T08:18:22;101321.13;;;-0.74;50.82
36234;BME280;43467;50.890;5.982;2024-01-10T08:20:48;101317.72;;;-0.70;51.39
36234;BME280;43467;50.890;5.982;2024-01-10T08:23:13;101321.25;;;-0.67;51.20
36234;BME280;43467;50.890;5.982;2024-01-10T08:25:39;101319.31;;;-0.78;51.23
36234;BME280;43467;50.890;5.982;2024-01-10T08:28:05;101322.75;;;-0.79;51.11
36234;BME280;43467;50.890;5.982;2024-01-10T08:30:31;101314.16;;;-0.75;51.08
36234;BME280;43467;50.890;5.982;2024-01-10T08:32:57;101312.53;;;-0.69;51.51
36234;BME280;43467;50.890;5.982;2024-01-10T08:35:24;101310.03;;;-0.63;51.10
36234;BME280;43467;50.890;5.982;2024-01-10T08:37:49;101313.53;;;-0.61;50.94
36234;BME280;43467;50.890;5.982;2024-01-10T08:40:15;101314.47;;;-0.57;50.84
36234;BME280;43467;50.890;5.982;2024-01-10T08:42:41;101304.13;;;-0.53;50.87
36234;BME280;43467;50.890;5.982;2024-01-10T08:45:09;101317.13;;;-0.54;51.01
36234;BME280;43467;50.890;5.982;2024-01-10T08:47:35;101310.19;;;-0.54;50.59
36234;BME280;43467;50.890;5.982;2024-01-10T08:50:03;101312.03;;;-0.47;50.75
36234;BME280;43467;50.890;5.982;2024-01-10T08:52:31;101301.63;;;-0.47;50.72
36234;BME280;43467;50.890;5.982;2024-01-10T08:54:56;101320.72;;;-0.44;51.04
36234;BME280;43467;50.890;5.982;2024-01-10T08:57:21;101319.13;;;-0.38;50.70
36234;BME280;43467;50.890;5.982;2024-01-10T08:59:47;101324.31;;;-0.38;50.54
36234;BME280;43467;50.890;5.982;2024-01-10T09:02:12;101330.34;;;-0.40;50.93
36234;BME280;43467;50.890;5.982;2024-01-10T09:04:37;101333.06;;;-0.34;50.86
36234;BME280;43467;50.890;5.982;2024-01-10T09:07:04;101331.44;;;-0.26;50.33
36234;BME280;43467;50.890;5.982;2024-01-10T09:09:29;101323.53;;;-0.34;50.13
36234;BME280;43467;50.890;5.982;2024-01-10T09:11:56;101333.94;;;-0.32;50.19
36234;BME280;43467;50.890;5.982;2024-01-10T09:14:21;101323.59;;;-0.28;50.41
36234;BME280;43467;50.890;5.982;2024-01-10T09:16:47;101331.25;;;-0.38;50.08
36234;BME280;43467;50.890;5.982;2024-01-10T09:19:12;101336.50;;;-0.35;50.49
36234;BME280;43467;50.890;5.982;2024-01-10T09:21:38;101320.75;;;-0.43;50.33
36234;BME280;43467;50.890;5.982;2024-01-10T09:24:03;101335.69;;;-0.31;50.08
36234;BME280;43467;50.890;5.982;2024-01-10T09:26:33;101336.63;;;-0.28;50.15
36234;BME280;43467;50.890;5.982;2024-01-10T09:28:58;101337.53;;;-0.24;50.27
36234;BME280;43467;50.890;5.982;2024-01-10T09:31:24;101334.81;;;-0.32;50.20
36234;BME280;43467;50.890;5.982;2024-01-10T09:33:50;101333.16;;;-0.27;49.92
36234;BME280;43467;50.890;5.982;2024-01-10T09:36:15;101323.72;;;-0.22;49.77
36234;BME280;43467;50.890;5.982;2024-01-10T09:38:41;101321.81;;;-0.33;49.20
36234;BME280;43467;50.890;5.982;2024-01-10T09:41:07;101322.84;;;-0.22;49.76
36234;BME280;43467;50.890;5.982;2024-01-10T09:43:33;101331.59;;;-0.17;49.52
36234;BME280;43467;50.890;5.982;2024-01-10T09:46:02;101324.66;;;-0.15;49.25
36234;BME280;43467;50.890;5.982;2024-01-10T09:48:29;101328.19;;;-0.13;49.19
36234;BME280;43467;50.890;5.982;2024-01-10T09:50:55;101325.59;;;-0.13;49.16
36234;BME280;43467;50.890;5.982;2024-01-10T09:53:25;101330.03;;;-0.06;49.13
36234;BME280;43467;50.890;5.982;2024-01-10T09:55:55;101324.78;;;-0.08;49.03
36234;BME280;43467;50.890;5.982;2024-01-10T09:58:23;101324.88;;;-0.02;49.21
36234;BME280;43467;50.890;5.982;2024-01-10T10:00:50;101323.09;;;-0.06;49.04
36234;BME280;43467;50.890;5.982;2024-01-10T10:03:17;101333.44;;;-0.10;48.62
36234;BME280;43467;50.890;5.982;2024-01-10T10:05:43;101324.75;;;-0.11;48.46
36234;BME280;43467;50.890;5.982;2024-01-10T10:08:11;101322.97;;;-0.13;48.93
36234;BME280;43467;50.890;5.982;2024-01-10T10:10:39;101323.06;;;-0.07;48.38
36234;BME280;43467;50.890;5.982;2024-01-10T10:13:09;101323.94;;;-0.07;47.98
36234;BME280;43467;50.890;5.982;2024-01-10T10:15:37;101324.78;;;-0.09;47.92
36234;BME280;43467;50.890;5.982;2024-01-10T10:18:03;101322.13;;;-0.11;47.80
36234;BME280;43467;50.890;5.982;2024-01-10T10:20:30;101324.81;;;-0.06;47.95
36234;BME280;43467;50.890;5.982;2024-01-10T10:23:06;101322.31;;;0.00;48.15
36234;BME280;43467;50.890;5.982;2024-01-10T10:25:35;101319.81;;;0.09;47.62
36234;BME280;43467;50.890;5.982;2024-01-10T10:28:03;101323.31;;;0.11;47.37
36234;BME280;43467;50.890;5.982;2024-01-10T10:30:31;101317.31;;;0.17;47.17
36234;BME280;43467;50.890;5.982;2024-01-10T10:32:56;101318.13;;;0.11;47.58
36234;BME280;43467;50.890;5.982;2024-01-10T10:35:22;101324.22;;;0.12;47.64
36234;BME280;43467;50.890;5.982;2024-01-10T10:37:52;101322.44;;;0.11;47.79
36234;BME280;43467;50.890;5.982;2024-01-10T10:40:19;101322.66;;;0.24;47.39
36234;BME280;43467;50.890;5.982;2024-01-10T10:42:55;101323.50;;;0.23;46.84
36234;BME280;43467;50.890;5.982;2024-01-10T10:45:22;101327.03;;;0.28;47.01
36234;BME280;43467;50.890;5.982;2024-01-10T10:48:00;101314.94;;;0.33;47.23
36234;BME280;43467;50.890;5.982;2024-01-10T10:50:28;101315.81;;;0.32;46.88
36234;BME280;43467;50.890;5.982;2024-01-10T10:52:54;101322.03;;;0.43;46.65
36234;BME280;43467;50.890;5.982;2024-01-10T10:55:22;101325.56;;;0.49;47.08
36234;BME280;43467;50.890;5.982;2024-01-10T10:57:49;101318.75;;;0.60;47.02
36234;BME280;43467;50.890;5.982;2024-01-10T11:00:17;101322.19;;;0.59;46.38
36234;BME280;43467;50.890;5.982;2024-01-10T11:02:44;101324.03;;;0.66;45.89
36234;BME280;43467;50.890;5.982;2024-01-10T11:05:10;101319.69;;;0.66;45.72
36234;BME280;43467;50.890;5.982;2024-01-10T11:07:37;101317.00;;;0.59;45.50
36234;BME280;43467;50.890;5.982;2024-01-10T11:10:05;101311.81;;;0.62;45.40
36234;BME280;43467;50.890;5.982;2024-01-10T11:21:03;101308.97;;;0.42;46.14
36234;BME280;43467;50.890;5.982;2024-01-10T11:23:46;101315.09;;;0.45;46.33
36234;BME280;43467;50.890;5.982;2024-01-10T11:26:15;101313.44;;;0.52;46.94
36234;BME280;43467;50.890;5.982;2024-01-10T11:28:40;101318.63;;;0.51;46.62
36234;BME280;43467;50.890;5.982;2024-01-10T11:31:07;101307.38;;;0.52;45.61
36234;BME280;43467;50.890;5.982;2024-01-10T11:33:39;101299.47;;;0.44;45.46
36234;BME280;43467;50.890;5.982;2024-01-10T11:41:24;101294.16;;;0.36;45.42
36234;BME280;43467;50.890;5.982;2024-01-10T11:46:35;101292.06;;;0.10;45.86
36234;BME280;43467;50.890;5.982;2024-01-10T11:49:02;101294.94;;;0.31;45.95
36234;BME280;43467;50.890;5.982;2024-01-10T11:51:29;101289.41;;;0.07;45.55
36234;BME280;43467;50.890;5.982;2024-01-10T11:53:55;101290.25;;;0.04;46.00
36234;BME280;43467;50.890;5.982;2024-01-10T11:56:22;101294.72;;;0.14;45.80
36234;BME280;43467;50.890;5.982;2024-01-10T11:59:03;101297.28;;;0.11;45.54
36234;BME280;43467;50.890;5.982;2024-01-10T12:01:33;101290.19;;;0.01;45.32
36234;BME280;43467;50.890;5.982;2024-01-10T12:03:59;101281.53;;;0.02;45.51
36234;BME280;43467;50.890;5.982;2024-01-10T12:06:26;101284.38;;;0.19;45.43
36234;BME280;43467;50.890;5.982;2024-01-10T12:08:51;101276.69;;;0.28;45.29
36234;BME280;43467;50.890;5.982;2024-01-10T12:11:17;101283.47;;;0.17;45.55
36234;BME280;43467;50.890;5.982;2024-01-10T12:13:43;101282.78;;;0.30;45.61
36234;BME280;43467;50.890;5.982;2024-01-10T12:16:12;101268.81;;;0.25;45.13
36234;BME280;43467;50.890;5.982;2024-01-10T12:18:38;101273.25;;;0.32;45.51
36234;BME280;43467;50.890;5.982;2024-01-10T12:21:03;101267.38;;;0.50;45.22
36234;BME280;43467;50.890;5.982;2024-01-10T12:23:30;101274.59;;;0.72;45.65
36234;BME280;43467;50.890;5.982;2024-01-10T12:26:03;101254.56;;;0.68;44.96
36234;BME280;43467;50.890;5.982;2024-01-10T12:28:30;101264.19;;;0.73;44.63
36234;BME280;43467;50.890;5.982;2024-01-10T12:30:56;101261.53;;;0.69;44.96
36234;BME280;43467;50.890;5.982;2024-01-10T12:33:22;101260.69;;;0.73;45.25
36234;BME280;43467;50.890;5.982;2024-01-10T12:36:09;101253.72;;;0.70;45.22
36234;BME280;43467;50.890;5.982;2024-01-10T12:38:36;101257.28;;;0.80;45.18
36234;BME280;43467;50.890;5.982;2024-01-10T12:41:03;101251.91;;;0.63;46.08
36234;BME280;43467;50.890;5.982;2024-01-10T12:43:29;101253.72;;;0.69;46.40
36234;BME280;43467;50.890;5.982;2024-01-10T12:46:09;101255.41;;;0.65;46.16
36234;BME280;43467;50.890;5.982;2024-01-10T12:48:41;101257.03;;;0.57;46.28
36234;BME280;43467;50.890;5.982;2024-01-10T12:51:11;101256.19;;;0.57;46.67
36234;BME280;43467;50.890;5.982;2024-01-10T12:53:39;101250.03;;;0.53;47.01
36234;BME280;43467;50.890;5.982;2024-01-10T12:56:07;101244.69;;;0.41;47.12
36234;BME280;43467;50.890;5.982;2024-01-10T12:58:35;101239.25;;;0.21;47.27
36234;BME280;43467;50.890;5.982;2024-01-10T13:01:02;101245.50;;;0.35;47.54
36234;BME280;43467;50.890;5.982;2024-01-10T13:03:29;101252.31;;;0.23;47.96